• Join FlightAware (Why Join?)
  • Login
  • US Flag 
08:48AM EST


 

Airport Tracker/Info


-or-


 

Live Flight TrackerFlight Track Log ✈ GLA74V ✈ 01-May-2012 ✈ KDEN - KVEL

Flight Track Log - Related Links

Times and Time Zones

All times are in EDT time to prevent confusion due to time zone crossing. See the GLA74V flight status page for this flight to view local times or setup timezone preferences in your user account.

Time Position Orientation Groundspeed Altitude Reporting Facility
EDT Latitude Longitude Course Direction KTS MPH feet Rate Location/Type
10:44AM 39.8480 -104.6657 279° West  Level FlightAware Approximate
10:45AM 39.8667 -104.8167 288° West 180 207 8,900  Level Denver TRACON
10:46AM 39.8833 -104.8833 270° West 199 229 10,200 1,020 Climbing Denver TRACON
10:47AM 39.8833 -104.9500 285° West 206 237 10,900 960 Climbing Denver TRACON
10:48AM 39.9000 -105.0333 285° West 208 239 12,200 1,260 Climbing Denver TRACON
10:49AM 39.9167 -105.1167 294° West 203 234 13,600 1,560 Climbing Denver TRACON
10:50AM 39.9389 -105.1814 293° West 195 224 15,400 1,320 Climbing Denver Center
10:51AM 39.9603 -105.2461 288° West 195 224 16,400 1,200 Climbing Denver Center
10:52AM 39.9756 -105.3081 289° West 206 237 17,800 1,260 Climbing Denver Center
10:53AM 39.9931 -105.3728 292° West 206 237 19,000 1,200 Climbing Denver Center
10:54AM 40.0122 -105.4350 283° West 201 231 20,200 900 Climbing Denver Center
10:55AM 40.0233 -105.4997 275° West 186 214 20,900 780 Climbing Denver Center
10:56AM 40.0281 -105.5731 275° West 191 220 21,800 480 Climbing Denver Center
10:57AM 40.0328 -105.6489 262° West 206 237 21,900  Climbing Denver Center
10:58AM 40.0250 -105.7222 262° West 206 237 21,900  Level Denver Center
10:59AM 40.0169 -105.7956 268° West 212 244 22,000  Climbing Denver Center
11:00AM 40.0153 -105.8633 268° West 217 250 21,900 -60 Descending Denver Center
11:01AM 40.0136 -105.9447 266° West 217 250 21,900  Level Denver Center
11:02AM 40.0097 -106.0233 270° West 217 250 21,900  Level Denver Center
11:03AM 40.0100 -106.1047 265° West 217 250 21,900  Level Denver Center
11:04AM 40.0042 -106.1858 268° West 217 250 22,000  Climbing Denver Center
11:05AM 40.0022 -106.2644 270° West 222 255 21,900  Descending Denver Center
11:06AM 40.0022 -106.3486 270° West 222 255 22,000 -60 Climbing Denver Center
11:07AM 40.0022 -106.4408 274° West 233 268 21,800 -60 Descending Denver Center
11:08AM 40.0064 -106.5219 274° West 240 276 21,900  Climbing Denver Center
11:09AM 40.0106 -106.6033 273° West 240 276 21,900  Level Denver Center
11:10AM 40.0144 -106.7011 277° West 240 276 22,000  Climbing Denver Center
11:11AM 40.0228 -106.7878 274° West 240 276 21,900 -60 Descending Denver Center
11:12AM 40.0267 -106.8639 273° West 234 269 21,900  Level Denver Center
11:13AM 40.0306 -106.9506 276° West 234 269 22,000  Climbing Denver Center
11:14AM 40.0383 -107.0428 273° West 234 269 22,000  Level Denver Center
11:15AM 40.0422 -107.1297 274° West 234 269 22,000 -60 Level Denver Center
11:16AM 40.0458 -107.2056 275° West 234 269 21,900  Descending Denver Center
11:17AM 40.0514 -107.2897 273° West 234 269 22,000  Climbing Denver Center
11:18AM 40.0550 -107.3847 275° West 234 269 21,900  Descending Denver Center
11:19AM 40.0606 -107.4717 275° West 234 269 22,000  Climbing Denver Center
11:20AM 40.0661 -107.5506 274° West 234 269 21,900 -60 Descending Denver Center
11:21AM 40.0714 -107.6456 275° West 234 269 21,900  Level Denver Center
11:22AM 40.0767 -107.7269 276° West 234 269 21,900 60 Level Denver Center
11:23AM 40.0839 -107.8167 283° West 239 275 22,100  Climbing Denver Center
11:24AM 40.0978 -107.8931 282° West 239 275 21,900 -60 Descending Denver Center
11:25AM 40.1131 -107.9856 282° West 239 275 22,000 60 Climbing Denver Center
11:26AM 40.1267 -108.0703 284° West 234 269 22,100  Climbing Denver Center
11:27AM 40.1422 -108.1494 282° West 234 269 22,000 -120 Descending Denver Center
11:28AM 40.1536 -108.2203 281° West 234 269 21,900 -180 Descending Denver Center
11:29AM 40.1669 -108.3103 282° West 229 264 21,700 -600 Descending Denver Center
11:30AM 40.1800 -108.3894 285° West 229 264 20,700 -1,200 Descending Denver Center
11:31AM 40.1956 -108.4633 284° West 229 264 19,400 -1,320 Descending Denver Center
11:32AM 40.2108 -108.5425 285° West 229 264 18,100 -1,740 Descending Denver Center
11:33AM 40.2300 -108.6383 283° West 243 280 16,000 -1,740 Descending Denver Center
11:34AM 40.2450 -108.7258 284° West 243 280 14,700 -1,680 Descending Denver Center
11:35AM 40.2681 -108.8506 281° West 253 291 11,900 -1,140 Descending Salt Lake Center
11:37AM 40.2822 -108.9478 281° West 248 285 11,900  Level Salt Lake Center